Aérodrome :
LOGIN :

S'inscrire | Disclaimer

   EN    FR    IT 

 










Légende :    VFR   VFR Marginal   IFR   IFR Intensif   IFR Très Intensif
Visi : 
Plafond : 
>= 8 km
>= 3000ft
5 à 8 km
1000 à 3000 ft
1500m à 5 km
500 à 1000 ft
800 à 1500m
200 à 500 ft
< 800m
< 200 ft
Symboles :   Orages  Brouillard  Fortes neiges  Fortes précipitations  Vent > 20 kt
SIGMETs :   Divers  Orages  Givrage  Turbulence  Onde Orograph.  Cendres Volcan.







- Altitude de l'aérodrome : 295 ft
- Code IATA : BWE


EDVE - Braunschweig

DERNIER METAR :
  • 281150Z 29009KT 250V340 9999 SCT049 13/01 Q1012

METARs EXPIRÉS :
  • 281050Z 25009KT 210V280 9999 FEW049 SCT061 12/M00 Q1013
  • 281020Z 27011KT 9999 FEW048 SCT056 11/01 Q1013
  • 280950Z 26008KT 210V310 9999 SCT043 SCT053 10/M00 Q1013
  • 280920Z 23006KT 200V330 9999 SCT038 11/01 Q1013

TAF TAF EDVE
Valide du 28 à 12h jusqu'au 28 à 21h UTC


281100Z 2812/2821 27006KT CAVOK
Pas de NOTAMs connus pour ce terrain.



MET'MAP, la Météo Aéronautique d'un coup d'oeil ! - Copyright ORBIFLY Décembre 2007 - Disclaimer

ORBIFLY MET'MAP TEAM :

Programmation & Développement : Alexandra Zaïnal
Conception & Développement : Baudouin d'Aumeries
Co-Programmation & Développement : Marc-Olivier Méhu
Soutien technique & logistique : Manuel Goepfert

Contact : metmap@orbifly.com




SOURCES & CREDITS :

   NOAA